sensor_id;sensor_type;location;lat;lon;timestamp;temperature;humidity
25871;DHT22;13689;48.590;7.752;2023-04-01T00:01:25;11.80;76.00
25871;DHT22;13689;48.590;7.752;2023-04-01T00:03:51;11.80;76.00
25871;DHT22;13689;48.590;7.752;2023-04-01T00:06:18;11.80;75.90
25871;DHT22;13689;48.590;7.752;2023-04-01T00:08:44;11.80;75.90
25871;DHT22;13689;48.590;7.752;2023-04-01T00:11:10;11.80;75.80
25871;DHT22;13689;48.590;7.752;2023-04-01T00:13:36;11.80;75.60
25871;DHT22;13689;48.590;7.752;2023-04-01T00:16:02;11.90;75.60
25871;DHT22;13689;48.590;7.752;2023-04-01T00:18:29;11.90;75.50
25871;DHT22;13689;48.590;7.752;2023-04-01T00:20:55;11.80;75.40
25871;DHT22;13689;48.590;7.752;2023-04-01T00:23:21;11.80;75.60
25871;DHT22;13689;48.590;7.752;2023-04-01T00:25:47;11.80;75.80
25871;DHT22;13689;48.590;7.752;2023-04-01T00:28:14;11.80;76.30
25871;DHT22;13689;48.590;7.752;2023-04-01T00:30:40;11.80;76.60
25871;DHT22;13689;48.590;7.752;2023-04-01T00:33:06;11.70;76.80
25871;DHT22;13689;48.590;7.752;2023-04-01T00:35:32;11.70;77.10
25871;DHT22;13689;48.590;7.752;2023-04-01T00:37:58;11.70;77.30
25871;DHT22;13689;48.590;7.752;2023-04-01T00:40:26;11.70;77.50
25871;DHT22;13689;48.590;7.752;2023-04-01T00:42:52;11.70;77.50
25871;DHT22;13689;48.590;7.752;2023-04-01T00:45:41;11.60;77.50
25871;DHT22;13689;48.590;7.752;2023-04-01T00:48:11;11.60;77.40
25871;DHT22;13689;48.590;7.752;2023-04-01T00:50:40;11.60;77.60
25871;DHT22;13689;48.590;7.752;2023-04-01T00:53:08;11.60;77.50
25871;DHT22;13689;48.590;7.752;2023-04-01T00:55:36;11.60;77.50
25871;DHT22;13689;48.590;7.752;2023-04-01T00:58:06;11.50;77.30
25871;DHT22;13689;48.590;7.752;2023-04-01T01:00:34;11.50;77.20
25871;DHT22;13689;48.590;7.752;2023-04-01T01:03:00;11.50;77.30
25871;DHT22;13689;48.590;7.752;2023-04-01T01:05:45;11.50;77.10
25871;DHT22;13689;48.590;7.752;2023-04-01T01:08:31;11.50;77.20
25871;DHT22;13689;48.590;7.752;2023-04-01T01:10:59;11.50;77.10
25871;DHT22;13689;48.590;7.752;2023-04-01T01:13:32;11.50;76.80
25871;DHT22;13689;48.590;7.752;2023-04-01T01:16:27;11.40;76.80
25871;DHT22;13689;48.590;7.752;2023-04-01T01:24:42;11.40;76.40
25871;DHT22;13689;48.590;7.752;2023-04-01T01:27:16;11.30;76.60
25871;DHT22;13689;48.590;7.752;2023-04-01T01:35:38;11.30;76.50
25871;DHT22;13689;48.590;7.752;2023-04-01T01:38:15;11.30;76.50
25871;DHT22;13689;48.590;7.752;2023-04-01T01:40:44;11.30;76.50
25871;DHT22;13689;48.590;7.752;2023-04-01T01:43:14;11.30;76.40
25871;DHT22;13689;48.590;7.752;2023-04-01T01:45:46;11.30;76.30
25871;DHT22;13689;48.590;7.752;2023-04-01T01:48:13;11.20;76.30
25871;DHT22;13689;48.590;7.752;2023-04-01T01:50:40;11.20;76.50
25871;DHT22;13689;48.590;7.752;2023-04-01T01:53:09;11.20;76.40
25871;DHT22;13689;48.590;7.752;2023-04-01T01:55:38;11.20;76.50
25871;DHT22;13689;48.590;7.752;2023-04-01T01:58:20;11.20;76.30
25871;DHT22;13689;48.590;7.752;2023-04-01T02:00:53;11.20;76.30
25871;DHT22;13689;48.590;7.752;2023-04-01T02:03:21;11.20;76.50
25871;DHT22;13689;48.590;7.752;2023-04-01T02:05:50;11.10;76.60
25871;DHT22;13689;48.590;7.752;2023-04-01T02:08:21;11.20;76.60
25871;DHT22;13689;48.590;7.752;2023-04-01T02:10:57;11.10;76.40
25871;DHT22;13689;48.590;7.752;2023-04-01T02:13:31;11.10;76.50
25871;DHT22;13689;48.590;7.752;2023-04-01T02:16:01;11.10;76.70
25871;DHT22;13689;48.590;7.752;2023-04-01T02:18:28;11.10;76.60
25871;DHT22;13689;48.590;7.752;2023-04-01T02:20:57;11.10;76.60
25871;DHT22;13689;48.590;7.752;2023-04-01T02:23:24;11.00;76.40
25871;DHT22;13689;48.590;7.752;2023-04-01T02:25:51;11.00;76.70
25871;DHT22;13689;48.590;7.752;2023-04-01T02:28:17;10.90;76.70
25871;DHT22;13689;48.590;7.752;2023-04-01T02:30:46;10.90;77.20
25871;DHT22;13689;48.590;7.752;2023-04-01T02:33:13;10.90;77.30
25871;DHT22;13689;48.590;7.752;2023-04-01T02:35:38;10.90;77.40
25871;DHT22;13689;48.590;7.752;2023-04-01T02:38:05;10.90;77.30
25871;DHT22;13689;48.590;7.752;2023-04-01T02:40:45;10.90;77.70
25871;DHT22;13689;48.590;7.752;2023-04-01T02:43:11;10.90;77.90
25871;DHT22;13689;48.590;7.752;2023-04-01T02:45:38;10.80;78.10
25871;DHT22;13689;48.590;7.752;2023-04-01T02:48:04;10.80;78.10
25871;DHT22;13689;48.590;7.752;2023-04-01T02:50:30;10.80;78.20
25871;DHT22;13689;48.590;7.752;2023-04-01T02:52:56;10.80;78.50
25871;DHT22;13689;48.590;7.752;2023-04-01T02:55:21;10.80;78.80
25871;DHT22;13689;48.590;7.752;2023-04-01T02:57:47;10.70;78.90
25871;DHT22;13689;48.590;7.752;2023-04-01T03:00:13;10.70;79.00
25871;DHT22;13689;48.590;7.752;2023-04-01T03:02:39;10.70;79.20
25871;DHT22;13689;48.590;7.752;2023-04-01T03:05:06;10.70;79.30
25871;DHT22;13689;48.590;7.752;2023-04-01T03:07:32;10.70;79.30
25871;DHT22;13689;48.590;7.752;2023-04-01T03:09:58;10.70;79.30
25871;DHT22;13689;48.590;7.752;2023-04-01T03:12:23;10.80;79.50
25871;DHT22;13689;48.590;7.752;2023-04-01T03:14:49;10.90;79.50
25871;DHT22;13689;48.590;7.752;2023-04-01T03:17:15;10.80;79.40
25871;DHT22;13689;48.590;7.752;2023-04-01T03:19:41;10.80;79.50
25871;DHT22;13689;48.590;7.752;2023-04-01T03:22:07;10.90;79.70
25871;DHT22;13689;48.590;7.752;2023-04-01T03:24:33;10.90;79.70
25871;DHT22;13689;48.590;7.752;2023-04-01T03:26:58;10.90;79.60
25871;DHT22;13689;48.590;7.752;2023-04-01T03:29:24;10.90;79.70
25871;DHT22;13689;48.590;7.752;2023-04-01T03:31:50;10.90;79.80
25871;DHT22;13689;48.590;7.752;2023-04-01T03:34:15;10.90;79.60
25871;DHT22;13689;48.590;7.752;2023-04-01T03:36:41;10.90;79.50
25871;DHT22;13689;48.590;7.752;2023-04-01T03:39:06;10.90;79.40
25871;DHT22;13689;48.590;7.752;2023-04-01T03:41:34;11.00;79.40
25871;DHT22;13689;48.590;7.752;2023-04-01T03:44:00;11.00;79.10
25871;DHT22;13689;48.590;7.752;2023-04-01T03:46:26;11.00;78.80
25871;DHT22;13689;48.590;7.752;2023-04-01T03:48:52;11.00;78.60
25871;DHT22;13689;48.590;7.752;2023-04-01T03:51:17;11.10;78.50
25871;DHT22;13689;48.590;7.752;2023-04-01T03:53:43;11.10;78.30
25871;DHT22;13689;48.590;7.752;2023-04-01T03:56:09;11.10;78.20
25871;DHT22;13689;48.590;7.752;2023-04-01T03:58:35;11.10;77.90
25871;DHT22;13689;48.590;7.752;2023-04-01T04:01:01;11.10;77.50
25871;DHT22;13689;48.590;7.752;2023-04-01T04:03:26;11.20;77.00
25871;DHT22;13689;48.590;7.752;2023-04-01T04:05:52;11.10;76.50
25871;DHT22;13689;48.590;7.752;2023-04-01T04:08:17;11.20;76.30
25871;DHT22;13689;48.590;7.752;2023-04-01T04:10:44;11.20;76.10
25871;DHT22;13689;48.590;7.752;2023-04-01T04:13:10;11.20;75.80
25871;DHT22;13689;48.590;7.752;2023-04-01T04:15:35;11.20;75.60
25871;DHT22;13689;48.590;7.752;2023-04-01T04:18:01;11.20;75.50
25871;DHT22;13689;48.590;7.752;2023-04-01T04:20:26;11.20;75.30
25871;DHT22;13689;48.590;7.752;2023-04-01T04:22:52;11.20;75.10
25871;DHT22;13689;48.590;7.752;2023-04-01T04:25:18;11.20;75.10
25871;DHT22;13689;48.590;7.752;2023-04-01T04:27:43;11.30;75.10
25871;DHT22;13689;48.590;7.752;2023-04-01T04:30:09;11.20;74.90
25871;DHT22;13689;48.590;7.752;2023-04-01T04:32:35;11.20;74.80
25871;DHT22;13689;48.590;7.752;2023-04-01T04:35:00;11.20;74.90
25871;DHT22;13689;48.590;7.752;2023-04-01T04:37:26;11.20;75.00
25871;DHT22;13689;48.590;7.752;2023-04-01T04:39:52;11.20;75.10
25871;DHT22;13689;48.590;7.752;2023-04-01T04:42:18;11.20;75.10
25871;DHT22;13689;48.590;7.752;2023-04-01T04:44:43;11.10;75.10
25871;DHT22;13689;48.590;7.752;2023-04-01T04:47:09;11.10;75.20
25871;DHT22;13689;48.590;7.752;2023-04-01T04:49:34;11.10;75.10
25871;DHT22;13689;48.590;7.752;2023-04-01T04:52:00;11.10;75.10
25871;DHT22;13689;48.590;7.752;2023-04-01T04:54:26;11.10;75.00
25871;DHT22;13689;48.590;7.752;2023-04-01T04:56:52;11.10;74.80
25871;DHT22;13689;48.590;7.752;2023-04-01T04:59:18;11.00;74.50
25871;DHT22;13689;48.590;7.752;2023-04-01T05:01:43;11.00;74.50
25871;DHT22;13689;48.590;7.752;2023-04-01T05:04:09;11.10;74.60
25871;DHT22;13689;48.590;7.752;2023-04-01T05:06:35;11.00;74.50
25871;DHT22;13689;48.590;7.752;2023-04-01T05:09:00;11.00;74.50
25871;DHT22;13689;48.590;7.752;2023-04-01T05:11:26;11.00;74.50
25871;DHT22;13689;48.590;7.752;2023-04-01T05:13:52;11.00;74.60
25871;DHT22;13689;48.590;7.752;2023-04-01T05:16:19;11.10;74.60
25871;DHT22;13689;48.590;7.752;2023-04-01T05:18:47;11.00;74.70
25871;DHT22;13689;48.590;7.752;2023-04-01T05:21:14;11.10;74.70
25871;DHT22;13689;48.590;7.752;2023-04-01T05:23:40;11.10;74.60
25871;DHT22;13689;48.590;7.752;2023-04-01T05:26:08;11.00;74.70
25871;DHT22;13689;48.590;7.752;2023-04-01T05:28:33;11.00;74.80
25871;DHT22;13689;48.590;7.752;2023-04-01T05:31:00;11.00;74.90
25871;DHT22;13689;48.590;7.752;2023-04-01T05:33:27;11.00;75.10
25871;DHT22;13689;48.590;7.752;2023-04-01T05:35:53;11.00;75.20
25871;DHT22;13689;48.590;7.752;2023-04-01T05:38:19;11.00;75.80
25871;DHT22;13689;48.590;7.752;2023-04-01T05:40:45;11.00;75.30
25871;DHT22;13689;48.590;7.752;2023-04-01T05:43:11;11.00;75.50
25871;DHT22;13689;48.590;7.752;2023-04-01T05:45:37;11.00;75.40
25871;DHT22;13689;48.590;7.752;2023-04-01T05:48:03;11.00;75.50
25871;DHT22;13689;48.590;7.752;2023-04-01T05:50:28;11.00;75.60
25871;DHT22;13689;48.590;7.752;2023-04-01T05:52:54;11.10;75.60
25871;DHT22;13689;48.590;7.752;2023-04-01T05:55:20;11.10;75.70
25871;DHT22;13689;48.590;7.752;2023-04-01T05:57:46;11.10;75.80
25871;DHT22;13689;48.590;7.752;2023-04-01T06:00:14;11.10;75.80
25871;DHT22;13689;48.590;7.752;2023-04-01T06:02:40;11.10;76.00
25871;DHT22;13689;48.590;7.752;2023-04-01T06:05:12;11.10;76.00
25871;DHT22;13689;48.590;7.752;2023-04-01T06:07:39;11.10;76.20
25871;DHT22;13689;48.590;7.752;2023-04-01T06:10:13;11.10;76.40
25871;DHT22;13689;48.590;7.752;2023-04-01T06:13:05;11.10;76.40
25871;DHT22;13689;48.590;7.752;2023-04-01T06:23:45;11.00;77.10
25871;DHT22;13689;48.590;7.752;2023-04-01T06:26:22;11.10;77.20
25871;DHT22;13689;48.590;7.752;2023-04-01T06:45:47;11.00;79.00
25871;DHT22;13689;48.590;7.752;2023-04-01T06:51:51;10.90;80.30
25871;DHT22;13689;48.590;7.752;2023-04-01T06:54:12;10.90;80.60
25871;DHT22;13689;48.590;7.752;2023-04-01T06:56:41;10.90;80.80
25871;DHT22;13689;48.590;7.752;2023-04-01T06:59:21;10.90;81.00
25871;DHT22;13689;48.590;7.752;2023-04-01T07:01:59;10.90;81.10
25871;DHT22;13689;48.590;7.752;2023-04-01T07:04:30;10.90;81.20
25871;DHT22;13689;48.590;7.752;2023-04-01T07:07:02;10.90;81.90
25871;DHT22;13689;48.590;7.752;2023-04-01T07:09:34;11.00;81.90
25871;DHT22;13689;48.590;7.752;2023-04-01T07:12:10;11.00;81.60
25871;DHT22;13689;48.590;7.752;2023-04-01T07:14:39;11.00;82.10
25871;DHT22;13689;48.590;7.752;2023-04-01T07:17:36;11.00;82.10
25871;DHT22;13689;48.590;7.752;2023-04-01T07:20:23;11.10;82.20
25871;DHT22;13689;48.590;7.752;2023-04-01T07:22:51;11.10;81.90
25871;DHT22;13689;48.590;7.752;2023-04-01T07:25:27;11.20;81.90
25871;DHT22;13689;48.590;7.752;2023-04-01T07:28:11;11.20;82.00
25871;DHT22;13689;48.590;7.752;2023-04-01T07:33:44;11.20;82.20
25871;DHT22;13689;48.590;7.752;2023-04-01T07:36:25;11.20;82.30
25871;DHT22;13689;48.590;7.752;2023-04-01T07:42:32;11.10;82.70
25871;DHT22;13689;48.590;7.752;2023-04-01T08:01:04;11.00;84.70
25871;DHT22;13689;48.590;7.752;2023-04-01T08:09:15;10.90;85.10
25871;DHT22;13689;48.590;7.752;2023-04-01T08:14:38;10.90;85.30
25871;DHT22;13689;48.590;7.752;2023-04-01T08:17:16;11.00;85.40
25871;DHT22;13689;48.590;7.752;2023-04-01T08:20:25;11.00;85.30
25871;DHT22;13689;48.590;7.752;2023-04-01T08:23:21;11.00;85.20
25871;DHT22;13689;48.590;7.752;2023-04-01T08:26:02;11.20;85.30
25871;DHT22;13689;48.590;7.752;2023-04-01T08:28:38;11.20;85.10
25871;DHT22;13689;48.590;7.752;2023-04-01T08:31:21;11.20;84.80
25871;DHT22;13689;48.590;7.752;2023-04-01T08:33:53;11.20;84.60
25871;DHT22;13689;48.590;7.752;2023-04-01T08:36:32;11.30;84.50
25871;DHT22;13689;48.590;7.752;2023-04-01T08:56:23;11.40;83.70
25871;DHT22;13689;48.590;7.752;2023-04-01T09:01:58;11.40;83.10
25871;DHT22;13689;48.590;7.752;2023-04-01T09:07:15;11.40;82.60
25871;DHT22;13689;48.590;7.752;2023-04-01T09:13:25;11.50;82.30
25871;DHT22;13689;48.590;7.752;2023-04-01T09:21:35;11.60;81.60
25871;DHT22;13689;48.590;7.752;2023-04-01T09:26:37;11.60;81.60
25871;DHT22;13689;48.590;7.752;2023-04-01T09:37:20;11.70;80.80
25871;DHT22;13689;48.590;7.752;2023-04-01T09:39:58;11.80;80.80
25871;DHT22;13689;48.590;7.752;2023-04-01T09:45:34;11.90;80.40
25871;DHT22;13689;48.590;7.752;2023-04-01T09:56:18;12.00;78.60
25871;DHT22;13689;48.590;7.752;2023-04-01T10:22:10;12.10;77.70
25871;DHT22;13689;48.590;7.752;2023-04-01T11:01:10;12.70;73.90
25871;DHT22;13689;48.590;7.752;2023-04-01T11:15:57;13.00;71.80
25871;DHT22;13689;48.590;7.752;2023-04-01T11:32:17;12.80;71.60
25871;DHT22;13689;48.590;7.752;2023-04-01T11:38:01;12.80;71.20
25871;DHT22;13689;48.590;7.752;2023-04-01T12:11:15;12.50;72.10
25871;DHT22;13689;48.590;7.752;2023-04-01T12:16:34;12.50;72.00
25871;DHT22;13689;48.590;7.752;2023-04-01T12:19:19;12.50;72.50
25871;DHT22;13689;48.590;7.752;2023-04-01T12:37:49;12.40;73.80
25871;DHT22;13689;48.590;7.752;2023-04-01T12:51:58;12.50;75.40
25871;DHT22;13689;48.590;7.752;2023-04-01T13:06:02;12.70;76.20
25871;DHT22;13689;48.590;7.752;2023-04-01T13:20:00;12.80;75.30
25871;DHT22;13689;48.590;7.752;2023-04-01T13:28:01;12.80;75.20
25871;DHT22;13689;48.590;7.752;2023-04-01T13:33:08;12.80;75.50
25871;DHT22;13689;48.590;7.752;2023-04-01T13:35:57;12.90;75.40
25871;DHT22;13689;48.590;7.752;2023-04-01T13:38:57;12.90;75.20
25871;DHT22;13689;48.590;7.752;2023-04-01T13:44:00;12.90;75.00
25871;DHT22;13689;48.590;7.752;2023-04-01T13:54:57;13.20;74.70
25871;DHT22;13689;48.590;7.752;2023-04-01T14:06:19;13.20;72.80
25871;DHT22;13689;48.590;7.752;2023-04-01T14:09:11;13.20;72.20
25871;DHT22;13689;48.590;7.752;2023-04-01T14:14:34;13.10;71.50
25871;DHT22;13689;48.590;7.752;2023-04-01T14:20:32;13.00;71.30
25871;DHT22;13689;48.590;7.752;2023-04-01T14:23:22;13.00;71.40
25871;DHT22;13689;48.590;7.752;2023-04-01T14:34:43;13.00;71.60
25871;DHT22;13689;48.590;7.752;2023-04-01T14:39:56;13.00;71.50
25871;DHT22;13689;48.590;7.752;2023-04-01T14:48:17;13.20;70.60
25871;DHT22;13689;48.590;7.752;2023-04-01T14:50:55;13.20;70.30
25871;DHT22;13689;48.590;7.752;2023-04-01T14:56:06;13.30;69.90
25871;DHT22;13689;48.590;7.752;2023-04-01T14:58:46;13.30;69.80
25871;DHT22;13689;48.590;7.752;2023-04-01T15:01:40;13.40;69.70
25871;DHT22;13689;48.590;7.752;2023-04-01T15:10:38;13.50;69.60
25871;DHT22;13689;48.590;7.752;2023-04-01T15:16:18;13.50;69.60
25871;DHT22;13689;48.590;7.752;2023-04-01T15:24:29;13.40;69.30
25871;DHT22;13689;48.590;7.752;2023-04-01T15:35:33;13.40;68.90
25871;DHT22;13689;48.590;7.752;2023-04-01T15:43:51;13.40;68.80
25871;DHT22;13689;48.590;7.752;2023-04-01T15:46:43;13.40;68.80
25871;DHT22;13689;48.590;7.752;2023-04-01T15:49:52;13.40;68.80
25871;DHT22;13689;48.590;7.752;2023-04-01T15:52:24;13.40;68.90
25871;DHT22;13689;48.590;7.752;2023-04-01T15:58:32;13.30;69.00
25871;DHT22;13689;48.590;7.752;2023-04-01T16:04:18;13.10;69.50
25871;DHT22;13689;48.590;7.752;2023-04-01T16:07:10;13.10;69.90
25871;DHT22;13689;48.590;7.752;2023-04-01T16:18:08;13.10;70.20
25871;DHT22;13689;48.590;7.752;2023-04-01T16:23:48;13.10;70.70
25871;DHT22;13689;48.590;7.752;2023-04-01T16:26:30;13.10;71.00
25871;DHT22;13689;48.590;7.752;2023-04-01T16:29:17;13.00;71.30
25871;DHT22;13689;48.590;7.752;2023-04-01T16:32:00;13.00;71.30
25871;DHT22;13689;48.590;7.752;2023-04-01T16:34:54;13.00;71.30
25871;DHT22;13689;48.590;7.752;2023-04-01T16:37:37;13.00;71.20
25871;DHT22;13689;48.590;7.752;2023-04-01T16:57:19;11.90;74.90
25871;DHT22;13689;48.590;7.752;2023-04-01T17:02:42;11.60;77.60
25871;DHT22;13689;48.590;7.752;2023-04-01T17:05:11;11.50;78.50
25871;DHT22;13689;48.590;7.752;2023-04-01T17:13:51;11.50;81.10
25871;DHT22;13689;48.590;7.752;2023-04-01T17:16:43;11.50;81.60
25871;DHT22;13689;48.590;7.752;2023-04-01T17:22:27;11.50;82.10
25871;DHT22;13689;48.590;7.752;2023-04-01T17:27:41;11.50;82.90
25871;DHT22;13689;48.590;7.752;2023-04-01T17:30:24;11.50;82.80
25871;DHT22;13689;48.590;7.752;2023-04-01T17:35:43;11.60;83.20
25871;DHT22;13689;48.590;7.752;2023-04-01T17:38:38;11.50;83.30
25871;DHT22;13689;48.590;7.752;2023-04-01T17:41:13;11.50;83.50
25871;DHT22;13689;48.590;7.752;2023-04-01T18:01:09;11.20;84.40
25871;DHT22;13689;48.590;7.752;2023-04-01T18:25:47;11.20;85.80
25871;DHT22;13689;48.590;7.752;2023-04-01T18:36:51;11.10;86.60
25871;DHT22;13689;48.590;7.752;2023-04-01T18:39:37;11.00;86.80
25871;DHT22;13689;48.590;7.752;2023-04-01T18:42:10;11.00;87.10
25871;DHT22;13689;48.590;7.752;2023-04-01T18:44:48;11.00;87.40
25871;DHT22;13689;48.590;7.752;2023-04-01T18:47:27;11.10;87.40
25871;DHT22;13689;48.590;7.752;2023-04-01T18:50:24;11.10;87.30
25871;DHT22;13689;48.590;7.752;2023-04-01T18:53:08;11.10;87.30
25871;DHT22;13689;48.590;7.752;2023-04-01T18:55:40;11.10;87.60
25871;DHT22;13689;48.590;7.752;2023-04-01T18:58:47;11.10;87.50
25871;DHT22;13689;48.590;7.752;2023-04-01T19:06:48;11.20;87.30
25871;DHT22;13689;48.590;7.752;2023-04-01T19:09:45;11.10;87.30
25871;DHT22;13689;48.590;7.752;2023-04-01T19:12:38;11.10;87.70
25871;DHT22;13689;48.590;7.752;2023-04-01T19:20:55;10.90;88.50
25871;DHT22;13689;48.590;7.752;2023-04-01T19:26:05;10.80;89.20
25871;DHT22;13689;48.590;7.752;2023-04-01T19:31:32;10.70;89.80
25871;DHT22;13689;48.590;7.752;2023-04-01T19:36:59;10.60;90.10
25871;DHT22;13689;48.590;7.752;2023-04-01T19:39:30;10.60;90.10
25871;DHT22;13689;48.590;7.752;2023-04-01T19:42:41;10.60;90.10
25871;DHT22;13689;48.590;7.752;2023-04-01T19:45:29;10.60;90.10
25871;DHT22;13689;48.590;7.752;2023-04-01T20:05:25;10.50;90.20
25871;DHT22;13689;48.590;7.752;2023-04-01T20:08:00;10.50;90.20
25871;DHT22;13689;48.590;7.752;2023-04-01T20:10:49;10.50;90.30
25871;DHT22;13689;48.590;7.752;2023-04-01T20:13:34;10.50;90.20
25871;DHT22;13689;48.590;7.752;2023-04-01T20:16:06;10.50;90.20
25871;DHT22;13689;48.590;7.752;2023-04-01T20:21:16;10.40;90.00
25871;DHT22;13689;48.590;7.752;2023-04-01T20:23:53;10.40;90.10
25871;DHT22;13689;48.590;7.752;2023-04-01T20:26:29;10.40;90.00
25871;DHT22;13689;48.590;7.752;2023-04-01T20:31:35;10.40;90.00
25871;DHT22;13689;48.590;7.752;2023-04-01T20:47:45;10.20;90.00
25871;DHT22;13689;48.590;7.752;2023-04-01T20:50:25;10.20;90.00
25871;DHT22;13689;48.590;7.752;2023-04-01T20:56:10;10.10;90.00
25871;DHT22;13689;48.590;7.752;2023-04-01T21:01:29;10.10;90.00
25871;DHT22;13689;48.590;7.752;2023-04-01T21:12:34;10.20;89.90
25871;DHT22;13689;48.590;7.752;2023-04-01T21:21:15;10.30;89.30
25871;DHT22;13689;48.590;7.752;2023-04-01T21:35:19;10.30;88.80
25871;DHT22;13689;48.590;7.752;2023-04-01T21:49:00;10.20;88.50
25871;DHT22;13689;48.590;7.752;2023-04-01T21:54:35;10.20;88.70
25871;DHT22;13689;48.590;7.752;2023-04-01T22:00:17;10.20;88.40
25871;DHT22;13689;48.590;7.752;2023-04-01T22:11:47;10.10;89.30
25871;DHT22;13689;48.590;7.752;2023-04-01T22:14:39;10.10;88.40
25871;DHT22;13689;48.590;7.752;2023-04-01T22:17:35;10.10;88.40
25871;DHT22;13689;48.590;7.752;2023-04-01T22:20:28;10.20;88.50
25871;DHT22;13689;48.590;7.752;2023-04-01T22:28:16;10.20;88.20
25871;DHT22;13689;48.590;7.752;2023-04-01T22:30:59;10.20;88.30
25871;DHT22;13689;48.590;7.752;2023-04-01T22:33:36;10.20;87.90
25871;DHT22;13689;48.590;7.752;2023-04-01T22:43:50;10.20;88.20
25871;DHT22;13689;48.590;7.752;2023-04-01T22:46:29;10.20;88.10
25871;DHT22;13689;48.590;7.752;2023-04-01T22:52:03;10.20;87.80
25871;DHT22;13689;48.590;7.752;2023-04-01T22:54:53;10.20;87.90
25871;DHT22;13689;48.590;7.752;2023-04-01T23:00:54;10.20;87.80
25871;DHT22;13689;48.590;7.752;2023-04-01T23:05:54;10.30;87.60
25871;DHT22;13689;48.590;7.752;2023-04-01T23:08:42;10.30;87.50
25871;DHT22;13689;48.590;7.752;2023-04-01T23:11:18;10.30;87.50
25871;DHT22;13689;48.590;7.752;2023-04-01T23:13:50;10.30;87.50
25871;DHT22;13689;48.590;7.752;2023-04-01T23:16:21;10.30;87.40
25871;DHT22;13689;48.590;7.752;2023-04-01T23:19:15;10.20;87.40
25871;DHT22;13689;48.590;7.752;2023-04-01T23:22:15;10.20;87.50
25871;DHT22;13689;48.590;7.752;2023-04-01T23:27:56;10.20;87.50
25871;DHT22;13689;48.590;7.752;2023-04-01T23:33:28;10.20;87.60
25871;DHT22;13689;48.590;7.752;2023-04-01T23:36:09;10.20;87.70
25871;DHT22;13689;48.590;7.752;2023-04-01T23:38:40;10.20;87.60
25871;DHT22;13689;48.590;7.752;2023-04-01T23:41:27;10.20;87.50
25871;DHT22;13689;48.590;7.752;2023-04-01T23:44:05;10.20;87.50
25871;DHT22;13689;48.590;7.752;2023-04-01T23:46:33;10.20;87.50
25871;DHT22;13689;48.590;7.752;2023-04-01T23:48:59;10.20;87.40
25871;DHT22;13689;48.590;7.752;2023-04-01T23:51:27;10.20;87.40
25871;DHT22;13689;48.590;7.752;2023-04-01T23:56:54;10.20;87.30
25871;DHT22;13689;48.590;7.752;2023-04-01T23:59:28;10.20;87.30
